x

Buzzards Bay, Ma (buzm3) Weather Station

12:00am - Fri 22nd Sep 2017 All times are EDT. -4 hours from GMT.

  • Wind
    53mph, 59mph gusts
  • Air Temp 61°f
  • Sea Pressure 1010mb
  • Buzzards Bay, Ma
  • Buzzards Bay, Ma

More Historic Weather Station data

Upgrade to MSW Pro to gain access to the past 30 days of data for over 8000 Wavebouys and Weather Stations around the globe.

Join

Comparision Forecast

View Surf forecast
   
Fri 09/22 12:00am 53 59 mph 1010mb 61f
Thu 09/21 11:00pm 38 43 mph 1011.5mb 65f
10:00pm 44 47 mph 1011.6mb 65f
9:00pm 44 48 mph 1011.7mb 63f
8:00pm 49 57 mph 1011.4mb 64f
7:00pm 43 53 mph 1012mb 67f
6:00pm 46 51 mph 1011.3mb 68f
5:00pm 46 54 mph 1011.3mb 67f
4:00pm 41 48 mph 1011.1mb 67f
3:00pm 39 43 mph 1011.2mb 67f
2:00pm 40 49 mph 1011.2mb 67f
1:00pm 43 46 mph 1011.3mb 66f
12:00pm 40 45 mph 1011.8mb 66f
11:00am 38 43 mph 1012mb 66f
10:00am 39 41 mph 1011.6mb 67f
9:00am 41 47 mph 1010.8mb 67f
8:00am 37 40 mph 1010.4mb 67f
7:00am 33 37 mph 1010.1mb 67f
6:00am 33 38 mph 1009.2mb 68f
5:00am 38 43 mph 1008.5mb 68f
4:00am 39 46 mph 1007.6mb 69f
3:00am 34 38 mph 1007.6mb 69f
2:00am 39 45 mph 1007.6mb 70f
1:00am 33 36 mph 1008.2mb 69f
12:00am 37 46 mph 1007.8mb 70f
Wed 09/20 11:00pm 34 41 mph 1007.9mb 70f
10:00pm 34 39 mph 1007.9mb 69f
9:00pm 34 40 mph 1007.8mb 69f
8:00pm 36 40 mph 1007.9mb 68f
7:00pm 34 39 mph 1007.6mb 67f
6:00pm 32 37 mph 1007.3mb 67f
5:00pm 34 39 mph 1006.9mb 67f
4:00pm 36 40 mph 1006.4mb 67f
3:00pm 31 32 mph 1006.7mb 66f
2:00pm 33 38 mph 1006.4mb 66f
1:00pm 31 37 mph 1006.2mb 67f
12:00pm 31 37 mph 1006.6mb 66f
11:00am 33 37 mph 1006.7mb 66f
10:00am 32 34 mph 1007.3mb 66f
9:00am 36 39 mph 1007.3mb 65f
8:00am 33 38 mph 1007.1mb 65f
7:00am 31 34 mph 1007.3mb 66f
6:00am 31 37 mph 1007.3mb 65f
5:00am 31 37 mph 1007.5mb 66f
4:00am 31 34 mph 1007.3mb 66f
3:00am 32 37 mph 1008.2mb 67f
2:00am 31 33 mph 1008.9mb 66f
1:00am 32 34 mph 1009.8mb 67f
12:00am 28 30 mph 1010.5mb 66f
Tue 09/19 11:00pm 30 32 mph 1010.6mb 67f
10:00pm 30 32 mph 1011.1mb 66f
9:00pm 30 32 mph 1011.6mb 67f
8:00pm 30 33 mph 1011.5mb 67f
7:00pm 30 34 mph 1011.5mb 67f
6:00pm 31 33 mph 1012mb 66f
5:00pm 29 32 mph 1012.5mb 66f
4:00pm 31 33 mph 1012.9mb 65f
3:00pm 33 36 mph 1012.9mb 66f
2:00pm 31 34 mph 1013.5mb 66f
1:00pm 32 34 mph 1014.8mb 65f
12:00pm 26 29 mph 1016.1mb 66f
11:00am 28 30 mph 1016.6mb 66f
10:00am 23 25 mph 1017.5mb 65f
9:00am 25 28 mph 1017mb 66f
8:00am 25 30 mph 1017.1mb 66f
7:00am 26 29 mph 1017.3mb 65f
6:00am 24 25 mph 1017.7mb 66f
5:00am 25 28 mph 1017.5mb 65f
4:00am 24 26 mph 1018.2mb 65f
3:00am 23 25 mph 1018.5mb 66f
2:00am 25 26 mph 1018.4mb 66f
1:00am 23 25 mph 1019.2mb 66f
12:00am 23 25 mph 1019.3mb 66f
Mon 09/18 11:00pm 22 24 mph 1019.8mb 66f
10:00pm 21 22 mph 1020.1mb 66f
9:00pm 18 21 mph 1020.4mb 67f
8:00pm 17 18 mph 1020.3mb 67f
7:00pm 16 17 mph 1019.7mb 67f
6:00pm 18 20 mph 1019.6mb 67f
5:00pm 15 16 mph 1020mb 67f
4:00pm 14 15 mph 1020mb 67f
3:00pm 14 15 mph 1020.4mb 68f
2:00pm 11 13 mph 1020.6mb 67f
1:00pm 14 15 mph 1021mb 67f
12:00pm 13 14 mph 1021.4mb 67f
11:00am 15 16 mph 1021.1mb 67f
10:00am 11 13 mph 1021.2mb 66f
9:00am 14 14 mph 1021mb 66f
8:00am 10 11 mph 1021mb 66f
7:00am 11 11 mph 1021mb 66f
6:00am 8 9 mph 1020.7mb 66f